Time;durP1;ratioP1;P1;durP2;ratioP2;P2;SDS_P1;SDS_P2;PMS_P1;PMS_P2;Temp;Humidity;BMP_temperature;BMP_pressure;BME280_temperature;BME280_humidity;BME280_pressure;Samples;Min_cycle;Max_cycle;Signal;HPM_P1;HPM_P2
2021/07/19 00:01:41;;;;;;;13.90;8.17;;;17.70;90.30;;;;;;5113988;28;20052;-69
2021/07/19 00:04:06;;;;;;;13.87;8.23;;;17.70;90.30;;;;;;5114373;28;20053;-68
2021/07/19 00:06:32;;;;;;;12.70;8.20;;;17.70;90.30;;;;;;5114006;28;20093;-69
2021/07/19 00:08:59;;;;;;;13.70;8.30;;;17.70;90.30;;;;;;5114175;28;20412;-68
2021/07/19 00:11:25;;;;;;;13.77;7.93;;;17.70;90.40;;;;;;5114579;28;20173;-68
2021/07/19 00:13:50;;;;;;;10.30;7.07;;;17.70;90.40;;;;;;5113630;28;20051;-69
2021/07/19 00:16:16;;;;;;;14.23;8.03;;;17.70;90.30;;;;;;5114294;28;20073;-69
2021/07/19 00:18:42;;;;;;;12.47;7.03;;;17.70;90.40;;;;;;5113333;28;20052;-69
2021/07/19 00:21:08;;;;;;;12.80;7.77;;;17.70;90.30;;;;;;5113009;28;20052;-69
2021/07/19 00:23:34;;;;;;;16.47;7.33;;;17.70;90.20;;;;;;5114196;28;20055;-69
2021/07/19 00:26:00;;;;;;;14.20;8.87;;;17.70;90.20;;;;;;5113847;28;20047;-69
2021/07/19 00:28:26;;;;;;;11.90;7.87;;;17.70;90.20;;;;;;5113532;28;20057;-69
2021/07/19 00:30:52;;;;;;;14.90;7.67;;;17.70;90.30;;;;;;5114399;28;20051;-69
2021/07/19 00:33:18;;;;;;;16.20;7.37;;;17.60;90.30;;;;;;5113859;28;20048;-69
2021/07/19 00:35:44;;;;;;;15.27;8.27;;;17.60;90.30;;;;;;5113176;28;20040;-68
2021/07/19 00:38:10;;;;;;;14.53;7.83;;;17.50;90.40;;;;;;5113601;28;20093;-68
2021/07/19 00:40:36;;;;;;;15.57;8.07;;;17.50;90.50;;;;;;5114095;28;20047;-68
2021/07/19 00:43:04;;;;;;;16.87;8.33;;;17.40;91.00;;;;;;5113100;28;20067;-69
2021/07/19 00:45:31;;;;;;;13.83;8.23;;;17.40;90.70;;;;;;5114142;28;20046;-68
2021/07/19 00:47:58;;;;;;;13.80;9.23;;;17.30;90.80;;;;;;5113869;28;20536;-69
2021/07/19 00:50:27;;;;;;;13.73;8.30;;;17.40;90.90;;;;;;5112393;28;20048;-69
2021/07/19 00:52:57;;;;;;;15.60;9.60;;;17.20;91.00;;;;;;5113763;28;20047;-68
2021/07/19 00:55:31;;;;;;;12.93;9.25;;;17.20;91.20;;;;;;5113359;28;20415;-69
2021/07/19 00:57:57;;;;;;;14.00;8.93;;;17.20;91.30;;;;;;5112877;28;20196;-69
2021/07/19 01:00:23;;;;;;;13.93;9.20;;;17.10;91.30;;;;;;5113249;28;20075;-69
2021/07/19 01:02:50;;;;;;;17.77;9.67;;;17.10;91.40;;;;;;5112729;28;20116;-69
2021/07/19 01:05:16;;;;;;;13.97;8.93;;;17.00;91.50;;;;;;5113221;28;20168;-69
2021/07/19 01:07:43;;;;;;;14.73;9.77;;;17.00;91.60;;;;;;5113654;28;20047;-69
2021/07/19 01:10:18;;;;;;;13.20;8.80;;;17.00;91.70;;;;;;5112329;28;20048;-68
2021/07/19 01:12:45;;;;;;;14.73;9.07;;;16.90;91.80;;;;;;5113438;28;20147;-68
2021/07/19 01:15:12;;;;;;;16.30;9.90;;;16.90;91.80;;;;;;5112973;28;20503;-68
2021/07/19 01:17:38;;;;;;;14.23;8.60;;;16.90;91.80;;;;;;5112344;28;20047;-68
2021/07/19 01:20:05;;;;;;;16.20;9.40;;;16.90;91.90;;;;;;5112782;28;20134;-68
2021/07/19 01:23:21;;;;;;;13.30;8.83;;;16.90;91.90;;;;;;5113104;28;20116;-67
2021/07/19 01:26:02;;;;;;;15.57;8.43;;;16.90;91.90;;;;;;5112366;28;20047;-68
2021/07/19 01:28:38;;;;;;;17.00;8.98;;;16.90;91.90;;;;;;5113045;28;20047;-68
2021/07/19 01:31:29;;;;;;;11.57;7.27;;;16.90;91.90;;;;;;5111897;28;20044;-68
2021/07/19 01:34:02;;;;;;;16.10;8.57;;;16.90;92.00;;;;;;5113008;28;20048;-67
2021/07/19 01:36:31;;;;;;;14.40;8.03;;;16.90;92.10;;;;;;5112611;28;20044;-67
2021/07/19 01:38:59;;;;;;;15.07;8.77;;;16.90;92.10;;;;;;5112214;28;20111;-68
2021/07/19 01:41:27;;;;;;;14.03;7.63;;;16.90;92.10;;;;;;5112884;28;20134;-68
2021/07/19 01:43:55;;;;;;;16.50;8.37;;;16.90;92.10;;;;;;5112812;28;20067;-68
2021/07/19 01:46:22;;;;;;;14.40;8.03;;;16.90;92.10;;;;;;5111695;28;20139;-68
2021/07/19 01:48:48;;;;;;;12.33;7.70;;;16.90;92.10;;;;;;5112506;28;20075;-69
2021/07/19 01:51:14;;;;;;;13.53;7.70;;;16.90;92.10;;;;;;5112130;28;20044;-69
2021/07/19 01:53:41;;;;;;;12.73;8.07;;;16.90;92.20;;;;;;5111900;28;20047;-68
2021/07/19 01:56:07;;;;;;;14.83;8.00;;;16.80;92.30;;;;;;5112271;28;20043;-69
2021/07/19 01:58:33;;;;;;;11.90;8.23;;;16.80;92.40;;;;;;5112538;28;20054;-68
2021/07/19 02:01:00;;;;;;;16.10;8.07;;;16.80;92.40;;;;;;5111657;28;20118;-68
2021/07/19 02:03:27;;;;;;;14.03;8.23;;;16.90;92.40;;;;;;5112342;28;20146;-68
2021/07/19 02:05:56;;;;;;;13.33;7.67;;;16.90;92.40;;;;;;5112445;28;20170;-69
2021/07/19 02:08:22;;;;;;;14.53;8.20;;;16.90;92.40;;;;;;5111556;28;20108;-69
2021/07/19 02:10:50;;;;;;;11.90;7.60;;;16.90;92.40;;;;;;5112432;28;20126;-69
2021/07/19 02:13:20;;;;;;;10.83;7.67;;;16.90;92.50;;;;;;5111162;28;20043;-68
2021/07/19 02:15:51;;;;;;;13.97;7.90;;;16.90;92.50;;;;;;5112305;28;20441;-68
2021/07/19 02:18:19;;;;;;;13.57;7.73;;;16.90;92.50;;;;;;5111796;28;20036;-68
2021/07/19 02:20:46;;;;;;;15.83;7.93;;;16.90;92.50;;;;;;5111268;28;20059;-68
2021/07/19 02:23:14;;;;;;;11.87;6.83;;;16.90;92.50;;;;;;5111519;28;20047;-68
2021/07/19 02:25:41;;;;;;;13.93;7.33;;;16.90;92.40;;;;;;5111780;28;20036;-67
2021/07/19 02:28:10;;;;;;;13.17;7.20;;;16.90;92.40;;;;;;5110577;28;20044;-68
2021/07/19 02:30:37;;;;;;;12.73;6.43;;;16.90;92.40;;;;;;5109109;28;20086;-68
2021/07/19 02:33:04;;;;;;;12.73;6.73;;;16.90;92.40;;;;;;5111425;28;20047;-67
2021/07/19 02:35:31;;;;;;;9.37;6.73;;;16.90;92.40;;;;;;5111037;28;20043;-68
2021/07/19 02:38:03;;;;;;;12.67;7.37;;;16.90;92.40;;;;;;5111662;28;20130;-67
2021/07/19 02:40:30;;;;;;;21.27;8.07;;;16.90;92.40;;;;;;5111517;28;20044;-68
2021/07/19 02:42:58;;;;;;;13.30;6.80;;;16.90;92.40;;;;;;5110380;28;20163;-68
2021/07/19 02:45:27;;;;;;;11.57;7.60;;;16.90;92.40;;;;;;5111245;28;20052;-67
2021/07/19 02:47:54;;;;;;;13.13;8.23;;;16.90;92.40;;;;;;5108945;28;20047;-68
2021/07/19 02:50:23;;;;;;;10.10;7.03;;;16.80;92.40;;;;;;5110653;28;20060;-68
2021/07/19 02:52:51;;;;;;;17.47;7.73;;;16.80;92.50;;;;;;5111708;28;20126;-67
2021/07/19 02:55:18;;;;;;;14.23;7.23;;;16.70;92.50;;;;;;5110341;28;20070;-68
2021/07/19 02:57:47;;;;;;;9.43;7.47;;;16.70;92.60;;;;;;5111194;28;20043;-68
2021/07/19 03:00:16;;;;;;;12.67;7.47;;;16.70;92.60;;;;;;5108504;28;20043;-69
2021/07/19 03:02:50;;;;;;;13.43;7.17;;;16.70;92.70;;;;;;5110718;28;20043;-68
2021/07/19 03:05:19;;;;;;;11.47;6.73;;;16.60;92.70;;;;;;5108882;28;20051;-68
2021/07/19 03:07:51;;;;;;;13.90;7.63;;;16.60;92.70;;;;;;5111250;28;20043;-68
2021/07/19 03:10:20;;;;;;;13.77;7.70;;;16.60;92.70;;;;;;5107858;28;20048;-68
2021/07/19 03:12:49;;;;;;;16.83;7.87;;;16.60;92.70;;;;;;5111209;28;20050;-68
2021/07/19 03:15:15;;;;;;;13.63;7.40;;;16.60;92.80;;;;;;5108301;28;20432;-68
2021/07/19 03:17:41;;;;;;;14.17;7.70;;;16.60;92.70;;;;;;5110623;28;20051;-68
2021/07/19 03:20:10;;;;;;;15.00;7.90;;;16.50;92.70;;;;;;5110634;28;20474;-68
2021/07/19 03:22:40;;;;;;;13.13;7.27;;;16.50;92.80;;;;;;5108668;28;20048;-68
2021/07/19 03:25:08;;;;;;;16.43;8.03;;;16.50;92.90;;;;;;5110217;28;20083;-68
2021/07/19 03:27:36;;;;;;;11.30;7.30;;;16.50;92.90;;;;;;5111242;28;20043;-69
2021/07/19 03:30:09;;;;;;;13.63;8.10;;;16.50;92.90;;;;;;5110594;28;20387;-69
2021/07/19 03:32:38;;;;;;;16.67;7.87;;;16.50;92.90;;;;;;5108044;28;20050;-69
2021/07/19 03:35:05;;;;;;;13.73;7.43;;;16.50;92.90;;;;;;5110906;28;20441;-69
2021/07/19 03:37:31;;;;;;;13.33;7.47;;;16.50;92.90;;;;;;5110434;28;20113;-68
2021/07/19 03:40:04;;;;;;;14.03;8.10;;;16.50;92.90;;;;;;5110839;28;20052;-69
2021/07/19 03:42:30;;;;;;;13.17;7.53;;;16.60;92.90;;;;;;5110831;28;20039;-69
2021/07/19 03:44:57;;;;;;;16.67;7.47;;;16.60;93.00;;;;;;5110549;28;20047;-69
2021/07/19 03:47:24;;;;;;;17.27;8.30;;;16.60;93.00;;;;;;5110464;28;20107;-69
2021/07/19 03:49:49;;;;;;;16.33;7.90;;;16.60;93.00;;;;;;5110769;28;20047;-69
2021/07/19 03:52:16;;;;;;;15.50;7.97;;;16.60;93.00;;;;;;5109982;28;20040;-68
2021/07/19 03:54:41;;;;;;;13.23;8.30;;;16.60;93.00;;;;;;5113008;28;20047;-69
2021/07/19 03:57:09;;;;;;;13.07;8.57;;;16.60;93.00;;;;;;5114698;28;20078;-69
2021/07/19 03:59:35;;;;;;;17.07;9.07;;;16.60;93.00;;;;;;5111733;28;20127;-69
2021/07/19 04:02:10;;;;;;;14.03;8.33;;;16.70;93.00;;;;;;5114747;28;20417;-69
2021/07/19 04:04:41;;;;;;;16.10;8.93;;;16.70;93.00;;;;;;5112112;28;20392;-68
2021/07/19 04:07:08;;;;;;;14.67;9.07;;;16.70;93.10;;;;;;5113857;28;20067;-69
2021/07/19 04:09:36;;;;;;;14.77;8.93;;;16.70;93.10;;;;;;5111395;28;20126;-69
2021/07/19 04:12:03;;;;;;;14.87;9.07;;;16.70;93.10;;;;;;5113632;28;20488;-69
2021/07/19 04:14:30;;;;;;;16.90;8.57;;;16.70;93.10;;;;;;5113389;28;20075;-69
2021/07/19 04:16:56;;;;;;;15.20;9.33;;;16.70;93.10;;;;;;5114054;28;20112;-70
2021/07/19 04:19:23;;;;;;;14.20;8.67;;;16.70;93.20;;;;;;5113904;28;20464;-69
2021/07/19 04:21:51;;;;;;;13.37;8.53;;;16.70;93.20;;;;;;5112990;28;20138;-69
2021/07/19 04:24:17;;;;;;;12.93;8.63;;;16.70;93.20;;;;;;5113718;28;20446;-69
2021/07/19 04:26:43;;;;;;;15.23;8.47;;;16.70;93.20;;;;;;5110467;28;20043;-69
2021/07/19 04:29:09;;;;;;;14.50;8.93;;;16.80;93.20;;;;;;5113404;28;20044;-69
2021/07/19 04:31:37;;;;;;;12.60;8.50;;;16.80;93.30;;;;;;5113650;28;20047;-68
2021/07/19 04:34:03;;;;;;;18.77;8.97;;;16.80;93.30;;;;;;5112654;28;20142;-69
2021/07/19 04:36:32;;;;;;;13.23;8.87;;;16.70;93.20;;;;;;5113649;28;20107;-69
2021/07/19 04:38:58;;;;;;;15.33;9.10;;;16.70;93.30;;;;;;5113778;28;20094;-69
2021/07/19 04:41:24;;;;;;;15.43;9.50;;;16.70;93.30;;;;;;5112792;27;20090;-70
2021/07/19 04:43:49;;;;;;;13.37;9.10;;;16.70;93.40;;;;;;5113752;28;20424;-69
2021/07/19 04:46:16;;;;;;;19.90;10.17;;;16.70;93.40;;;;;;5113630;28;20044;-69
2021/07/19 04:48:41;;;;;;;14.77;8.77;;;16.70;93.40;;;;;;5113012;28;20054;-70
2021/07/19 04:51:07;;;;;;;16.00;8.80;;;16.70;93.40;;;;;;5113702;28;20052;-69
2021/07/19 04:53:33;;;;;;;16.07;8.20;;;16.80;93.30;;;;;;5113751;28;20506;-69
2021/07/19 04:56:00;;;;;;;12.47;7.10;;;16.80;93.20;;;;;;5112942;28;20122;-69
2021/07/19 04:58:28;;;;;;;18.00;8.47;;;16.70;93.00;;;;;;5113608;28;20051;-69
2021/07/19 05:01:00;;;;;;;14.17;6.93;;;16.70;92.90;;;;;;5113475;28;20328;-70
2021/07/19 05:03:29;;;;;;;11.63;6.83;;;16.70;92.60;;;;;;5112931;28;20040;-70
2021/07/19 05:05:59;;;;;;;12.00;6.90;;;16.70;92.40;;;;;;5113011;28;20047;-69
2021/07/19 05:08:26;;;;;;;13.27;6.93;;;16.70;92.20;;;;;;5113427;28;20050;-69
2021/07/19 05:10:53;;;;;;;10.97;7.80;;;16.70;92.10;;;;;;5112641;28;20047;-69
2021/07/19 05:13:20;;;;;;;12.90;6.47;;;16.70;91.90;;;;;;5113012;28;20043;-69
2021/07/19 05:15:46;;;;;;;12.93;6.27;;;16.70;91.80;;;;;;5113696;28;20047;-69
2021/07/19 05:18:16;;;;;;;11.93;6.03;;;16.70;91.70;;;;;;5112381;28;20112;-69
2021/07/19 05:20:42;;;;;;;12.27;6.37;;;16.70;91.60;;;;;;5112987;28;20069;-69
2021/07/19 05:23:08;;;;;;;15.10;6.83;;;16.70;91.50;;;;;;5112228;28;20044;-69
2021/07/19 05:25:34;;;;;;;14.87;5.97;;;16.70;91.50;;;;;;5113092;28;20043;-69
2021/07/19 05:28:14;;;;;;;14.67;6.60;;;16.70;91.50;;;;;;5112967;28;20465;-69
2021/07/19 05:30:46;;;;;;;13.80;5.60;;;16.70;91.40;;;;;;5112352;28;20052;-69
2021/07/19 05:33:13;;;;;;;13.97;5.93;;;16.70;91.30;;;;;;5112773;28;20052;-69
2021/07/19 05:35:38;;;;;;;12.13;6.50;;;16.70;91.30;;;;;;5113157;28;20067;-69
2021/07/19 05:38:05;;;;;;;14.47;5.90;;;16.80;91.20;;;;;;5111775;28;20090;-69
2021/07/19 05:40:33;;;;;;;19.80;6.87;;;16.80;91.10;;;;;;5113050;28;20059;-69
2021/07/19 05:43:00;;;;;;;13.73;5.10;;;16.80;91.10;;;;;;5112846;28;20062;-69
2021/07/19 05:45:27;;;;;;;12.80;5.80;;;16.90;91.40;;;;;;5111868;28;20069;-69
2021/07/19 05:47:53;;;;;;;12.53;5.60;;;16.90;90.80;;;;;;5112794;28;20073;-69
2021/07/19 05:50:20;;;;;;;13.63;6.03;;;16.90;90.50;;;;;;5112301;28;20062;-69
2021/07/19 05:52:46;;;;;;;9.83;4.93;;;17.00;90.50;;;;;;5111694;28;20135;-69
2021/07/19 05:55:12;;;;;;;14.03;5.70;;;17.00;90.40;;;;;;5112162;28;20445;-69
2021/07/19 05:57:38;;;;;;;15.10;5.83;;;17.00;90.30;;;;;;5112460;28;20412;-69
2021/07/19 06:00:09;;;;;;;14.87;5.80;;;17.00;90.20;;;;;;5111591;28;20059;-69
2021/07/19 06:02:35;;;;;;;11.75;4.97;;;17.10;90.10;;;;;;5111907;28;20043;-69
2021/07/19 06:05:06;;;;;;;9.73;5.03;;;17.10;89.80;;;;;;5107936;28;20074;-69
2021/07/19 06:07:33;;;;;;;12.73;4.60;;;17.10;89.30;;;;;;5111837;28;20040;-69
2021/07/19 06:09:59;;;;;;;12.40;5.50;;;17.10;88.90;;;;;;5111438;28;20142;-69
2021/07/19 06:12:25;;;;;;;11.77;5.50;;;17.10;88.50;;;;;;5111122;28;20050;-69
2021/07/19 06:14:50;;;;;;;11.67;5.00;;;17.10;88.00;;;;;;5111532;28;20048;-69
2021/07/19 06:17:16;;;;;;;11.10;5.10;;;17.10;87.80;;;;;;5110568;28;20067;-69
2021/07/19 06:19:44;;;;;;;11.33;5.43;;;17.10;87.70;;;;;;5107860;28;20135;-69
2021/07/19 06:22:11;;;;;;;10.83;5.10;;;17.20;87.50;;;;;;5111090;28;20165;-69
2021/07/19 06:24:43;;;;;;;11.20;5.00;;;17.20;87.50;;;;;;5111407;28;20051;-69
2021/07/19 06:27:09;;;;;;;14.70;5.40;;;17.20;87.30;;;;;;5108246;28;20055;-69
2021/07/19 06:29:35;;;;;;;10.17;4.90;;;17.20;87.00;;;;;;5111118;28;20047;-69
2021/07/19 06:32:01;;;;;;;13.27;5.37;;;17.20;86.80;;;;;;5111129;28;20342;-70
2021/07/19 06:34:28;;;;;;;10.63;5.00;;;17.20;86.50;;;;;;5110230;28;20039;-68
2021/07/19 06:36:54;;;;;;;12.33;4.60;;;17.30;86.20;;;;;;5111774;28;20048;-69
2021/07/19 06:39:20;;;;;;;11.57;4.93;;;17.30;86.50;;;;;;5102379;28;20052;-67
2021/07/19 06:41:46;;;;;;;11.57;5.07;;;17.30;86.90;;;;;;5107715;28;20390;-67
2021/07/19 06:44:12;;;;;;;10.70;4.43;;;17.40;86.30;;;;;;5107955;28;20070;-67
2021/07/19 06:46:38;;;;;;;11.07;4.27;;;17.50;86.20;;;;;;5108725;28;20044;-67
2021/07/19 06:49:04;;;;;;;9.47;4.20;;;17.50;85.50;;;;;;5107272;28;20100;-68
2021/07/19 06:51:30;;;;;;;9.37;4.13;;;17.60;85.80;;;;;;5108608;28;20048;-68
2021/07/19 06:53:56;;;;;;;10.03;5.00;;;17.60;84.50;;;;;;5108651;28;20051;-68
2021/07/19 06:56:21;;;;;;;13.73;5.03;;;17.50;84.50;;;;;;5107608;28;20082;-69
2021/07/19 06:58:47;;;;;;;12.30;5.47;;;17.50;84.50;;;;;;5108158;28;20075;-69
2021/07/19 07:01:13;;;;;;;13.40;4.53;;;17.50;84.50;;;;;;5108033;28;20044;-68
2021/07/19 07:03:39;;;;;;;13.03;4.87;;;17.50;84.30;;;;;;5107513;28;20126;-67
2021/07/19 07:06:05;;;;;;;13.80;4.60;;;17.50;84.40;;;;;;5108178;28;20039;-67
2021/07/19 07:08:30;;;;;;;15.67;5.23;;;17.50;84.00;;;;;;5107428;28;20067;-67
2021/07/19 07:10:58;;;;;;;12.20;4.97;;;17.40;84.20;;;;;;5108101;28;20518;-67
2021/07/19 07:13:23;;;;;;;10.90;3.83;;;17.40;84.00;;;;;;5107999;28;20047;-67
2021/07/19 07:15:49;;;;;;;13.33;4.33;;;17.40;83.60;;;;;;5107492;28;20050;-67
2021/07/19 07:18:15;;;;;;;11.73;4.67;;;17.50;84.10;;;;;;5107883;28;20042;-67
2021/07/19 07:20:41;;;;;;;9.53;4.63;;;17.50;83.90;;;;;;5105025;28;20056;-66
2021/07/19 07:23:07;;;;;;;16.70;5.57;;;17.60;84.00;;;;;;5106998;28;20040;-67
2021/07/19 07:25:33;;;;;;;12.13;4.73;;;17.70;83.90;;;;;;5107809;28;20449;-66
2021/07/19 07:27:59;;;;;;;10.30;4.33;;;17.70;83.60;;;;;;5108443;28;20117;-66
2021/07/19 07:30:25;;;;;;;10.10;4.97;;;17.70;83.10;;;;;;5111008;28;20047;-68
2021/07/19 07:32:52;;;;;;;11.53;5.37;;;17.70;82.80;;;;;;5112113;28;20891;-68
2021/07/19 07:35:18;;;;;;;11.30;4.70;;;17.60;82.60;;;;;;5111105;28;20392;-69
2021/07/19 07:37:44;;;;;;;10.63;4.80;;;17.60;82.70;;;;;;5110897;28;20099;-68
2021/07/19 07:40:12;;;;;;;13.70;5.27;;;17.60;82.60;;;;;;5111140;28;20035;-68
2021/07/19 07:42:39;;;;;;;11.60;4.70;;;17.60;82.80;;;;;;5111411;28;20047;-68
2021/07/19 07:45:06;;;;;;;11.47;5.20;;;17.60;82.90;;;;;;5110223;28;20516;-69
2021/07/19 07:47:31;;;;;;;12.67;4.43;;;17.60;82.60;;;;;;5111432;28;20480;-67
2021/07/19 07:49:57;;;;;;;10.70;5.00;;;17.70;82.20;;;;;;5111109;28;20054;-68
2021/07/19 07:52:22;;;;;;;12.00;4.83;;;17.80;81.90;;;;;;5110419;28;20047;-69
2021/07/19 07:54:48;;;;;;;9.70;4.33;;;17.80;81.50;;;;;;5111144;28;20097;-68
2021/07/19 07:57:14;;;;;;;10.83;4.73;;;17.90;81.00;;;;;;5110648;28;20071;-66
2021/07/19 07:59:40;;;;;;;8.80;4.57;;;17.90;81.00;;;;;;5110150;28;20057;-67
2021/07/19 08:02:06;;;;;;;12.67;4.97;;;17.90;80.90;;;;;;5110797;28;20438;-67
2021/07/19 08:04:32;;;;;;;14.97;5.20;;;18.00;80.70;;;;;;5110060;28;20043;-66
2021/07/19 08:07:00;;;;;;;11.40;5.03;;;18.00;80.60;;;;;;5109294;28;20067;-68
2021/07/19 08:09:26;;;;;;;11.43;5.33;;;18.10;80.80;;;;;;5110787;28;20052;-68
2021/07/19 08:11:52;;;;;;;12.33;4.90;;;18.20;80.50;;;;;;5109980;28;20065;-69
2021/07/19 08:14:17;;;;;;;6.80;4.07;;;18.20;79.40;;;;;;5110110;28;20047;-70
2021/07/19 08:16:43;;;;;;;8.17;4.37;;;18.20;79.10;;;;;;5110666;28;20134;-68
2021/07/19 08:19:09;;;;;;;10.43;4.50;;;18.20;78.90;;;;;;5109543;28;20134;-68
2021/07/19 08:21:37;;;;;;;9.50;4.40;;;18.20;78.70;;;;;;5110258;28;20055;-68
2021/07/19 08:24:03;;;;;;;11.17;4.07;;;18.10;78.30;;;;;;5107686;28;20046;-69
2021/07/19 08:26:29;;;;;;;7.20;3.77;;;18.10;78.40;;;;;;5109684;28;20035;-69
2021/07/19 08:28:56;;;;;;;9.80;4.47;;;18.00;78.20;;;;;;5110420;28;20051;-69
2021/07/19 08:31:26;;;;;;;11.43;4.67;;;17.90;77.90;;;;;;5110297;28;20488;-69
2021/07/19 08:33:52;;;;;;;10.87;4.50;;;17.80;77.60;;;;;;5109858;28;20492;-69
2021/07/19 08:36:18;;;;;;;10.70;3.90;;;17.80;77.90;;;;;;5110700;28;20666;-69
2021/07/19 08:38:45;;;;;;;9.07;4.13;;;17.80;77.80;;;;;;5113266;28;20119;-69
2021/07/19 08:41:12;;;;;;;7.93;4.23;;;17.80;77.90;;;;;;5111596;28;20150;-69
2021/07/19 08:43:39;;;;;;;12.50;4.60;;;17.90;77.80;;;;;;5113576;28;20066;-69
2021/07/19 08:46:06;;;;;;;9.30;4.00;;;17.90;78.00;;;;;;5113147;28;20040;-69
2021/07/19 08:48:32;;;;;;;9.30;3.93;;;17.90;77.80;;;;;;5111798;28;20478;-69
2021/07/19 08:50:59;;;;;;;7.63;3.60;;;17.90;77.50;;;;;;5112564;28;20178;-69
2021/07/19 08:53:27;;;;;;;7.97;3.80;;;18.00;76.90;;;;;;5112498;28;20107;-69
2021/07/19 08:55:55;;;;;;;10.03;3.93;;;18.00;76.30;;;;;;5111453;28;20485;-68
2021/07/19 08:58:22;;;;;;;9.27;3.80;;;18.00;76.20;;;;;;5111890;28;20047;-69
2021/07/19 09:00:48;;;;;;;9.70;3.90;;;18.10;76.00;;;;;;5112543;28;20048;-69
2021/07/19 09:03:14;;;;;;;6.53;3.47;;;18.10;75.40;;;;;;5111977;28;20051;-69
2021/07/19 09:05:40;;;;;;;11.03;4.33;;;18.20;75.00;;;;;;5113249;28;20066;-68
2021/07/19 09:08:06;;;;;;;12.27;3.70;;;18.20;75.10;;;;;;5112310;28;20052;-69
2021/07/19 09:10:32;;;;;;;8.97;3.30;;;18.30;74.60;;;;;;5113009;28;20066;-69
2021/07/19 09:12:59;;;;;;;11.73;3.80;;;18.40;74.10;;;;;;5113169;28;20063;-68
2021/07/19 09:15:37;;;;;;;10.40;3.87;;;18.40;74.50;;;;;;5112395;28;20396;-69
2021/07/19 09:18:05;;;;;;;6.97;3.67;;;18.40;73.50;;;;;;5112730;28;20146;-70
2021/07/19 09:20:35;;;;;;;6.47;3.63;;;18.50;73.60;;;;;;5112873;28;20125;-68
2021/07/19 09:23:01;;;;;;;9.07;3.20;;;18.60;72.90;;;;;;5111667;28;20065;-69
2021/07/19 09:25:27;;;;;;;8.07;3.30;;;18.80;73.00;;;;;;5113292;28;20047;-69
2021/07/19 09:27:57;;;;;;;10.40;4.03;;;19.10;72.80;;;;;;5112987;28;20119;-69
2021/07/19 09:30:27;;;;;;;7.40;3.38;;;19.40;72.90;;;;;;5111701;28;20226;-69
2021/07/19 09:33:05;;;;;;;10.30;4.13;;;19.60;70.80;;;;;;5112865;28;20076;-69
2021/07/19 09:35:32;;;;;;;5.63;3.23;;;19.50;69.60;;;;;;5112808;28;20110;-68
2021/07/19 09:38:17;;;;;;;10.87;3.87;;;19.40;70.20;;;;;;5111952;28;20070;-68
2021/07/19 09:40:52;;;;;;;7.27;3.63;;;19.40;69.50;;;;;;5112761;28;20134;-69
2021/07/19 09:43:22;;;;;;;10.33;3.70;;;19.30;69.00;;;;;;5111385;28;20043;-69
2021/07/19 09:46:05;;;;;;;9.73;2.97;;;19.30;68.50;;;;;;5112003;28;20047;-69
2021/07/19 09:48:31;;;;;;;6.47;3.53;;;19.30;68.20;;;;;;5111909;28;20050;-68
2021/07/19 09:51:00;;;;;;;8.43;3.63;;;19.30;67.90;;;;;;5111007;28;20050;-68
2021/07/19 09:53:29;;;;;;;8.50;4.00;;;19.30;67.80;;;;;;5112588;28;20048;-68
2021/07/19 09:56:06;;;;;;;8.77;3.47;;;19.50;67.60;;;;;;5112426;28;20058;-68
2021/07/19 09:58:32;;;;;;;9.13;3.50;;;19.70;66.80;;;;;;5111415;28;20052;-69
2021/07/19 10:00:57;;;;;;;6.93;3.87;;;19.70;66.20;;;;;;5112138;28;20134;-69
2021/07/19 10:03:25;;;;;;;6.93;3.63;;;19.80;66.10;;;;;;5112063;28;20487;-69
2021/07/19 10:06:02;;;;;;;7.57;3.53;;;19.70;65.30;;;;;;5111464;28;20184;-69
2021/07/19 10:08:28;;;;;;;9.80;3.60;;;19.60;65.20;;;;;;5112250;28;20067;-69
2021/07/19 10:10:54;;;;;;;6.73;3.23;;;19.50;65.20;;;;;;5112131;28;20477;-69
2021/07/19 10:13:30;;;;;;;6.23;4.07;;;19.40;65.30;;;;;;5111061;28;20044;-69
2021/07/19 10:15:56;;;;;;;8.03;3.20;;;19.30;66.00;;;;;;5112005;28;20358;-69
2021/07/19 10:18:23;;;;;;;9.73;3.53;;;19.30;66.60;;;;;;5110495;28;20062;-69
2021/07/19 10:20:50;;;;;;;7.90;3.97;;;19.40;66.60;;;;;;5111830;28;20055;-69
2021/07/19 10:23:17;;;;;;;8.27;3.23;;;19.50;66.10;;;;;;5111629;28;20047;-68
2021/07/19 10:25:43;;;;;;;7.73;3.27;;;19.60;65.60;;;;;;5111102;28;20238;-68
2021/07/19 10:28:09;;;;;;;7.53;3.27;;;19.60;64.70;;;;;;5111774;28;20067;-69
2021/07/19 10:30:35;;;;;;;7.80;3.53;;;19.60;64.60;;;;;;5111828;28;20051;-69
2021/07/19 10:33:02;;;;;;;7.83;3.20;;;19.50;65.00;;;;;;5110804;28;20140;-70
2021/07/19 10:35:29;;;;;;;6.13;3.10;;;19.60;65.20;;;;;;5111706;28;20191;-69
2021/07/19 10:38:17;;;;;;;7.07;3.03;;;19.60;64.90;;;;;;5111380;28;20058;-69
2021/07/19 10:40:44;;;;;;;7.13;3.10;;;19.50;64.50;;;;;;5110424;28;20130;-69
2021/07/19 10:43:19;;;;;;;6.50;3.17;;;19.40;65.60;;;;;;5111309;28;20051;-69
2021/07/19 10:45:53;;;;;;;12.60;3.27;;;19.50;66.30;;;;;;5111731;28;20112;-69
2021/07/19 10:48:26;;;;;;;9.50;3.07;;;19.70;65.70;;;;;;5110558;28;20052;-70
2021/07/19 10:50:57;;;;;;;7.93;3.33;;;19.70;64.70;;;;;;5111532;28;20075;-70
2021/07/19 10:53:26;;;;;;;8.30;4.18;;;19.70;65.30;;;;;;5111417;28;20135;-69
2021/07/19 10:56:06;;;;;;;13.40;4.00;;;19.60;64.90;;;;;;5111551;28;20077;-68
2021/07/19 10:58:44;;;;;;;8.33;4.37;;;19.70;65.30;;;;;;5111406;28;20043;-69
2021/07/19 11:01:21;;;;;;;8.80;4.33;;;19.70;64.70;;;;;;5110324;28;20486;-68
2021/07/19 11:03:47;;;;;;;9.57;3.90;;;19.70;64.40;;;;;;5113920;28;20048;-69
2021/07/19 11:06:13;;;;;;;8.90;4.80;;;19.70;64.30;;;;;;5115286;28;20043;-68
2021/07/19 11:08:49;;;;;;;7.90;4.20;;;19.70;64.50;;;;;;5114826;28;20048;-68
2021/07/19 11:11:35;;;;;;;10.83;4.53;;;19.90;64.50;;;;;;5115314;28;20058;-68
2021/07/19 11:14:08;;;;;;;7.47;4.70;;;20.10;63.40;;;;;;5115358;28;20051;-69
2021/07/19 11:16:46;;;;;;;7.23;4.73;;;20.30;62.70;;;;;;5114910;28;20055;-69
2021/07/19 11:19:13;;;;;;;9.90;4.97;;;20.50;61.00;;;;;;5115163;28;20532;-68
2021/07/19 11:21:40;;;;;;;7.20;4.37;;;20.60;60.90;;;;;;5114261;28;20471;-68
2021/07/19 11:24:14;;;;;;;8.60;4.60;;;20.50;61.20;;;;;;5114943;28;20100;-68
2021/07/19 11:26:57;;;;;;;9.33;4.87;;;20.40;61.10;;;;;;5115278;28;20484;-68
2021/07/19 11:29:38;;;;;;;7.93;5.33;;;20.30;60.80;;;;;;5113852;28;20069;-68
2021/07/19 11:32:24;;;;;;;7.55;5.20;;;20.10;62.20;;;;;;5114766;28;20055;-69
2021/07/19 11:34:50;;;;;;;10.77;5.70;;;20.10;62.00;;;;;;5115252;28;20043;-69
2021/07/19 11:37:17;;;;;;;9.23;5.90;;;20.20;62.00;;;;;;5114222;28;20476;-68
2021/07/19 11:39:51;;;;;;;11.00;6.77;;;20.10;62.10;;;;;;5114990;28;20516;-68
2021/07/19 11:42:47;;;;;;;10.17;7.03;;;20.00;62.00;;;;;;5114757;28;20410;-68
2021/07/19 11:45:17;;;;;;;15.67;7.60;;;19.80;63.20;;;;;;5101432;28;20044;-68
2021/07/19 11:47:48;;;;;;;11.90;8.13;;;19.70;62.30;;;;;;5114795;28;20062;-68
2021/07/19 11:50:23;;;;;;;11.10;8.40;;;19.60;62.60;;;;;;5113843;28;20054;-68
2021/07/19 11:52:51;;;;;;;11.27;9.00;;;19.70;62.50;;;;;;5114925;28;20547;-69
2021/07/19 11:55:19;;;;;;;13.40;8.77;;;20.00;61.10;;;;;;5114347;28;20056;-69
2021/07/19 11:57:54;;;;;;;12.53;9.37;;;20.40;59.70;;;;;;5113876;28;20050;-68
2021/07/19 12:00:32;;;;;;;13.23;9.60;;;20.60;59.60;;;;;;5114280;28;20394;-68
2021/07/19 12:03:04;;;;;;;14.57;9.63;;;20.60;59.50;;;;;;5114713;28;20105;-68
2021/07/19 12:05:30;;;;;;;;;;;20.60;59.60;;;;;;5114108;28;20040;-68
2021/07/19 12:08:05;;;;;;;13.10;8.37;;;20.50;60.40;;;;;;5114420;28;19999;-68
2021/07/19 12:10:33;;;;;;;13.27;10.03;;;20.40;59.30;;;;;;5114575;28;20052;-68
2021/07/19 12:13:07;;;;;;;10.97;9.20;;;20.30;59.60;;;;;;5113839;28;20106;-69
2021/07/19 12:15:32;;;;;;;12.93;9.77;;;20.30;60.00;;;;;;5113056;28;20074;-69
2021/07/19 12:17:58;;;;;;;13.40;9.53;;;20.40;60.10;;;;;;5113361;28;20055;-68
2021/07/19 12:20:25;;;;;;;13.77;9.70;;;20.50;60.60;;;;;;5113699;28;20120;-69
2021/07/19 12:22:55;;;;;;;12.67;9.00;;;20.60;60.40;;;;;;5114509;28;20052;-68
2021/07/19 12:25:22;;;;;;;13.60;9.60;;;20.60;59.80;;;;;;5113354;28;20122;-69
2021/07/19 12:28:00;;;;;;;13.73;10.00;;;20.60;59.50;;;;;;5114132;28;20054;-68
2021/07/19 12:30:26;;;;;;;12.93;10.03;;;20.40;60.10;;;;;;5113991;28;20054;-68
2021/07/19 12:32:53;;;;;;;13.43;9.70;;;20.30;60.70;;;;;;5113220;28;20423;-68
2021/07/19 12:35:24;;;;;;;13.17;10.37;;;20.20;61.20;;;;;;5113699;28;20077;-69
2021/07/19 12:37:57;;;;;;;;;;;20.20;61.40;;;;;;5114393;28;20044;-69
2021/07/19 12:40:24;;;;;;;11.60;9.43;;;20.20;60.30;;;;;;5112682;28;19943;-68
2021/07/19 12:42:51;;;;;;;14.40;9.73;;;20.20;61.60;;;;;;5113713;28;20071;-68
2021/07/19 12:45:17;;;;;;;13.90;10.33;;;20.30;61.40;;;;;;5113331;28;20102;-68
2021/07/19 12:47:45;;;;;;;11.40;9.27;;;20.50;61.20;;;;;;5112908;28;20048;-70